createdAt,value
2023-03-21T00:01:04.959Z,16.50
2023-03-21T00:03:33.799Z,17.37
2023-03-21T00:06:10.723Z,16.00
2023-03-21T00:08:38.348Z,15.27
2023-03-21T00:11:07.500Z,15.35
2023-03-21T00:13:37.761Z,15.98
2023-03-21T00:16:12.186Z,15.55
2023-03-21T00:18:51.820Z,14.65
2023-03-21T00:21:48.806Z,14.05
2023-03-21T00:24:07.573Z,19.10
2023-03-21T00:26:34.377Z,14.85
2023-03-21T00:29:01.158Z,17.50
2023-03-21T00:31:27.976Z,17.58
2023-03-21T00:33:54.876Z,19.05
2023-03-21T00:36:25.336Z,18.10
2023-03-21T00:38:52.000Z,18.98
2023-03-21T00:41:31.626Z,15.88
2023-03-21T00:44:01.689Z,19.27
2023-03-21T00:46:39.753Z,20.55
2023-03-21T00:49:09.257Z,16.95
2023-03-21T00:51:36.171Z,20.33
2023-03-21T00:54:05.263Z,16.33
2023-03-21T00:56:31.971Z,19.75
2023-03-21T00:58:58.868Z,17.33
2023-03-21T01:01:26.052Z,17.35
2023-03-21T01:04:02.946Z,21.40
2023-03-21T01:06:32.783Z,18.58
2023-03-21T01:08:59.349Z,16.17
2023-03-21T01:11:28.278Z,21.67
2023-03-21T01:14:07.167Z,19.92
2023-03-21T01:16:35.805Z,19.62
2023-03-21T01:19:07.001Z,19.33
2023-03-21T01:21:34.087Z,19.58
2023-03-21T01:24:01.161Z,21.98
2023-03-21T01:26:28.686Z,18.98
2023-03-21T01:28:55.284Z,22.58
2023-03-21T01:31:22.480Z,18.95
2023-03-21T01:33:49.433Z,22.25
2023-03-21T01:36:23.186Z,21.00
2023-03-21T01:38:51.528Z,24.35
2023-03-21T01:41:36.715Z,19.05
2023-03-21T01:44:17.453Z,18.27
2023-03-21T01:46:57.347Z,19.62
2023-03-21T01:49:35.479Z,22.35
2023-03-21T01:52:15.232Z,22.10
2023-03-21T01:54:47.738Z,18.20
2023-03-21T01:57:21.760Z,21.17
2023-03-21T01:59:53.771Z,22.10
2023-03-21T02:02:26.881Z,21.58
2023-03-21T02:04:57.616Z,22.35
2023-03-21T02:07:31.025Z,23.33
2023-03-21T02:10:02.772Z,20.55
2023-03-21T02:12:30.191Z,22.13
2023-03-21T02:14:57.186Z,23.45
2023-03-21T02:17:53.900Z,18.52
2023-03-21T02:20:42.236Z,24.73
2023-03-21T02:23:23.866Z,25.27
2023-03-21T02:26:06.013Z,23.52
2023-03-21T02:28:38.919Z,21.52
2023-03-21T02:31:33.805Z,19.15
2023-03-21T02:34:36.713Z,20.90
2023-03-21T02:37:11.621Z,19.40
2023-03-21T02:40:16.345Z,20.95
2023-03-21T02:42:59.422Z,26.98
2023-03-21T02:45:35.705Z,18.77
2023-03-21T02:48:20.312Z,23.35
2023-03-21T02:50:55.105Z,26.15
2023-03-21T02:53:45.441Z,20.42
2023-03-21T02:56:12.372Z,25.77
2023-03-21T02:58:41.462Z,27.80
2023-03-21T03:01:08.616Z,23.70
2023-03-21T03:03:38.791Z,25.90
2023-03-21T03:06:16.418Z,24.08
2023-03-21T03:09:03.007Z,24.23
2023-03-21T03:11:35.957Z,22.67
2023-03-21T03:15:00.220Z,21.25
2023-03-21T03:18:09.672Z,21.98
2023-03-21T03:20:52.692Z,23.92
2023-03-21T03:23:41.300Z,23.20
2023-03-21T03:26:31.100Z,22.27
2023-03-21T03:29:02.586Z,21.80
2023-03-21T03:31:35.013Z,24.87
2023-03-21T03:34:06.582Z,25.05
2023-03-21T03:36:41.360Z,26.35
2023-03-21T03:39:11.194Z,24.98
2023-03-21T03:42:21.711Z,24.50
2023-03-21T03:44:40.243Z,24.35
2023-03-21T03:47:22.844Z,19.60
2023-03-21T03:50:09.234Z,22.15
2023-03-21T03:52:53.648Z,23.00
2023-03-21T03:55:25.893Z,21.98
2023-03-21T03:57:54.957Z,22.90
2023-03-21T04:00:21.551Z,24.35
2023-03-21T04:02:48.617Z,23.17
2023-03-21T04:05:22.847Z,19.52
2023-03-21T04:07:50.668Z,20.25
2023-03-21T04:10:19.459Z,22.20
2023-03-21T04:12:48.191Z,26.23
2023-03-21T04:15:16.346Z,23.42
2023-03-21T04:17:44.765Z,26.90
2023-03-21T04:20:18.677Z,25.60
2023-03-21T04:22:50.684Z,21.80
2023-03-21T04:25:30.790Z,25.95
2023-03-21T04:28:00.399Z,25.35
2023-03-21T04:30:33.550Z,23.45
2023-03-21T04:33:00.640Z,25.73
2023-03-21T04:35:28.473Z,25.80
2023-03-21T04:37:55.736Z,25.45
2023-03-21T04:40:24.541Z,23.08
2023-03-21T04:42:54.487Z,20.05
2023-03-21T04:45:21.697Z,20.12
2023-03-21T04:47:49.407Z,22.67
2023-03-21T04:50:16.203Z,22.58
2023-03-21T04:52:43.027Z,19.67
2023-03-21T04:55:10.654Z,23.70
2023-03-21T04:57:39.877Z,17.45
2023-03-21T05:00:10.043Z,24.08
2023-03-21T05:02:38.378Z,18.62
2023-03-21T05:05:10.407Z,19.35
2023-03-21T05:07:39.114Z,24.45
2023-03-21T05:10:07.933Z,22.15
2023-03-21T05:12:35.187Z,22.83
2023-03-21T05:15:02.259Z,20.15
2023-03-21T05:17:29.998Z,24.30
2023-03-21T05:19:57.175Z,23.12
2023-03-21T05:22:26.178Z,21.40
2023-03-21T05:24:54.681Z,21.15
2023-03-21T05:27:44.694Z,15.57
2023-03-21T05:30:15.712Z,20.02
2023-03-21T05:32:43.215Z,21.65
2023-03-21T05:35:11.078Z,19.45
2023-03-21T05:37:38.320Z,18.10
2023-03-21T05:40:06.641Z,21.77
2023-03-21T05:42:34.390Z,18.92
2023-03-21T05:45:08.738Z,15.07
2023-03-21T05:47:36.067Z,18.85
2023-03-21T05:50:04.129Z,19.35
2023-03-21T05:52:31.459Z,20.67
2023-03-21T05:54:58.930Z,16.08
2023-03-21T05:57:28.212Z,24.98
2023-03-21T05:59:56.101Z,20.92
2023-03-21T06:02:23.110Z,20.50
2023-03-21T06:04:53.502Z,17.48
2023-03-21T06:07:20.682Z,25.45
2023-03-21T06:09:49.213Z,20.15
2023-03-21T06:12:16.283Z,20.77
2023-03-21T06:14:43.085Z,19.80
2023-03-21T06:17:10.520Z,19.25
2023-03-21T06:19:39.901Z,21.62
2023-03-21T06:22:07.224Z,23.67
2023-03-21T06:24:34.549Z,18.98
2023-03-21T06:27:03.505Z,25.00
2023-03-21T06:29:32.941Z,20.90
2023-03-21T06:32:00.076Z,20.95
2023-03-21T06:34:27.107Z,24.48
2023-03-21T06:36:54.161Z,27.60
2023-03-21T06:39:21.463Z,15.80
2023-03-21T06:41:48.406Z,22.92
2023-03-21T06:44:15.321Z,20.92
2023-03-21T06:46:43.538Z,20.12
2023-03-21T06:49:11.505Z,27.23
2023-03-21T06:51:38.291Z,19.30
2023-03-21T06:54:05.198Z,17.73
2023-03-21T06:56:33.207Z,19.60
2023-03-21T06:59:02.186Z,19.52
2023-03-21T07:01:32.284Z,21.83
2023-03-21T07:03:59.945Z,15.48
2023-03-21T07:06:27.256Z,21.17
2023-03-21T07:08:55.337Z,19.80
2023-03-21T07:11:23.624Z,21.75
2023-03-21T07:13:50.996Z,23.08
2023-03-21T07:16:18.619Z,18.70
2023-03-21T07:18:46.051Z,19.08
2023-03-21T07:21:13.339Z,17.08
2023-03-21T07:23:40.671Z,19.67
2023-03-21T07:26:07.620Z,20.00
2023-03-21T07:28:34.279Z,18.37
2023-03-21T07:31:04.640Z,18.23
2023-03-21T07:33:32.861Z,22.50
2023-03-21T07:36:01.921Z,17.85
2023-03-21T07:38:30.366Z,12.73
2023-03-21T07:41:00.155Z,16.83
2023-03-21T07:43:29.182Z,18.23
2023-03-21T07:45:57.421Z,16.73
2023-03-21T07:48:26.820Z,15.18
2023-03-21T07:50:53.383Z,17.05
2023-03-21T07:53:20.276Z,12.32
2023-03-21T07:55:52.422Z,9.52
2023-03-21T07:58:19.064Z,14.60
2023-03-21T08:00:45.722Z,16.30
2023-03-21T08:03:12.658Z,15.93
2023-03-21T08:05:40.558Z,14.63
2023-03-21T08:08:07.619Z,18.92
2023-03-21T08:10:34.915Z,14.85
2023-03-21T08:13:02.075Z,15.40
2023-03-21T08:15:28.776Z,17.20
2023-03-21T08:17:55.808Z,6.75
2023-03-21T08:20:22.769Z,12.70
2023-03-21T08:22:50.209Z,12.43
2023-03-21T08:25:19.004Z,15.13
2023-03-21T08:27:46.117Z,10.35
2023-03-21T08:30:15.881Z,14.43
2023-03-21T08:32:42.889Z,11.43
2023-03-21T08:35:12.353Z,12.43
2023-03-21T08:37:40.681Z,10.18
2023-03-21T08:40:11.293Z,14.48
2023-03-21T08:42:38.701Z,11.98
2023-03-21T08:45:06.135Z,14.45
2023-03-21T08:47:33.013Z,18.83
2023-03-21T08:49:59.892Z,15.10
2023-03-21T08:52:27.187Z,17.77
2023-03-21T08:54:54.754Z,16.30
2023-03-21T08:57:21.356Z,15.02
2023-03-21T08:59:48.013Z,16.67
2023-03-21T09:02:16.179Z,15.75
2023-03-21T09:04:44.054Z,11.48
2023-03-21T09:07:14.405Z,14.68
2023-03-21T09:09:41.664Z,15.18
2023-03-21T09:12:08.383Z,16.73
2023-03-21T09:14:35.399Z,15.63
2023-03-21T09:17:02.156Z,11.63
2023-03-21T09:19:29.724Z,12.05
2023-03-21T09:21:57.309Z,14.32
2023-03-21T09:24:24.165Z,18.92
2023-03-21T09:26:51.053Z,12.23
2023-03-21T09:29:20.722Z,13.18
2023-03-21T09:31:48.004Z,16.73
2023-03-21T09:34:15.058Z,13.32
2023-03-21T09:36:43.670Z,11.77
2023-03-21T09:39:12.108Z,13.80
2023-03-21T09:42:19.117Z,10.40
2023-03-21T09:45:08.065Z,12.05
2023-03-21T09:47:52.359Z,14.80
2023-03-21T09:50:26.785Z,13.90
2023-03-21T09:52:58.144Z,10.05
2023-03-21T09:55:30.467Z,14.48
2023-03-21T09:58:21.352Z,13.00
2023-03-21T10:00:55.958Z,14.23
2023-03-21T10:03:29.114Z,15.25
2023-03-21T10:06:00.963Z,14.77
2023-03-21T10:08:35.903Z,13.90
2023-03-21T10:11:11.981Z,12.77
2023-03-21T10:13:43.552Z,14.60
2023-03-21T10:16:33.693Z,13.50
2023-03-21T10:19:04.862Z,10.27
2023-03-21T10:21:58.502Z,16.98
2023-03-21T10:24:24.717Z,11.18
2023-03-21T10:26:52.881Z,14.73
2023-03-21T10:29:24.131Z,16.87
2023-03-21T10:31:52.420Z,15.45
2023-03-21T10:34:41.106Z,12.93
2023-03-21T10:37:08.294Z,12.07
2023-03-21T10:39:37.897Z,12.93
2023-03-21T10:42:04.530Z,17.08
2023-03-21T10:44:33.850Z,14.93
2023-03-21T10:47:06.544Z,11.50
2023-03-21T10:49:40.757Z,23.20
2023-03-21T10:52:21.899Z,12.45
2023-03-21T10:54:49.680Z,13.62
2023-03-21T10:57:21.169Z,14.35
2023-03-21T10:59:55.182Z,11.27
2023-03-21T11:02:32.738Z,12.68
2023-03-21T11:05:06.010Z,12.48
2023-03-21T11:07:34.989Z,12.68
2023-03-21T11:10:19.957Z,12.65
2023-03-21T11:12:56.593Z,11.68
2023-03-21T11:16:02.382Z,9.88
2023-03-21T11:18:32.814Z,10.20
2023-03-21T11:21:05.848Z,7.50
2023-03-21T11:23:36.887Z,8.65
2023-03-21T11:26:10.203Z,8.82
2023-03-21T11:28:39.698Z,8.80
2023-03-21T11:31:08.736Z,9.23
2023-03-21T11:33:39.945Z,8.73
2023-03-21T11:36:31.438Z,8.15
2023-03-21T11:39:03.130Z,7.32
2023-03-21T11:41:32.738Z,5.90
2023-03-21T11:44:01.187Z,7.05
2023-03-21T11:46:30.770Z,4.80
2023-03-21T11:48:59.670Z,9.15
2023-03-21T11:51:52.848Z,7.07
2023-03-21T11:57:18.094Z,8.25
2023-03-21T11:59:57.438Z,7.90
2023-03-21T12:02:55.350Z,8.70
2023-03-21T12:05:35.883Z,8.32
2023-03-21T12:08:19.544Z,6.78
2023-03-21T12:10:57.884Z,11.27
2023-03-21T12:14:00.156Z,11.02
2023-03-21T12:16:42.787Z,8.65
2023-03-21T12:19:43.118Z,10.73
2023-03-21T12:22:37.091Z,10.02
2023-03-21T12:25:13.571Z,8.90
2023-03-21T12:28:08.729Z,7.80
2023-03-21T12:31:04.898Z,8.80
2023-03-21T12:33:49.785Z,7.22
2023-03-21T12:36:49.184Z,9.30
2023-03-21T12:39:28.409Z,7.32
2023-03-21T12:42:13.141Z,8.05
2023-03-21T12:44:47.256Z,7.70
2023-03-21T12:47:19.555Z,9.02
2023-03-21T12:49:52.000Z,8.35
2023-03-21T12:52:26.234Z,12.63
2023-03-21T12:55:18.725Z,6.82
2023-03-21T12:58:02.849Z,7.28
2023-03-21T13:00:52.567Z,5.80
2023-03-21T13:03:30.581Z,6.40
2023-03-21T13:06:06.820Z,8.40
2023-03-21T13:08:38.960Z,9.65
2023-03-21T13:11:07.608Z,6.55
2023-03-21T13:13:56.222Z,8.18
2023-03-21T13:16:32.077Z,6.57
2023-03-21T13:19:12.780Z,7.78
2023-03-21T13:21:56.694Z,6.70
2023-03-21T13:24:28.875Z,6.53
2023-03-21T13:27:03.540Z,7.07
2023-03-21T13:29:51.798Z,5.95
2023-03-21T13:32:33.068Z,5.55
2023-03-21T13:35:13.026Z,3.45
2023-03-21T13:37:43.157Z,8.25
2023-03-21T13:40:24.125Z,5.53
2023-03-21T13:42:56.321Z,4.80
2023-03-21T13:45:30.533Z,6.17
2023-03-21T13:48:02.921Z,4.40
2023-03-21T13:50:34.722Z,5.57
2023-03-21T13:53:19.837Z,7.83
2023-03-21T13:55:57.405Z,3.58
2023-03-21T13:58:34.429Z,6.28
2023-03-21T14:01:12.931Z,4.93
2023-03-21T14:03:40.737Z,6.97
2023-03-21T14:06:10.191Z,6.87
2023-03-21T14:08:40.744Z,4.65
2023-03-21T14:11:14.383Z,5.12
2023-03-21T14:13:50.755Z,9.18
2023-03-21T14:16:21.317Z,4.53
2023-03-21T14:18:55.933Z,4.57
2023-03-21T14:21:25.955Z,7.22
2023-03-21T14:23:57.910Z,7.93
2023-03-21T14:26:28.522Z,7.05
2023-03-21T14:28:57.421Z,7.32
2023-03-21T14:31:25.670Z,6.72
2023-03-21T14:33:57.154Z,8.73
2023-03-21T14:36:28.079Z,9.50
2023-03-21T14:39:03.405Z,6.62
2023-03-21T14:41:31.995Z,11.27
2023-03-21T14:44:24.721Z,8.98
2023-03-21T14:47:12.200Z,11.17
2023-03-21T14:49:38.978Z,10.77
2023-03-21T14:52:12.746Z,13.70
2023-03-21T14:54:43.920Z,9.35
2023-03-21T14:57:13.926Z,10.07
2023-03-21T14:59:41.626Z,13.00
2023-03-21T15:02:27.786Z,13.25
2023-03-21T15:04:58.371Z,7.43
2023-03-21T15:07:34.088Z,8.65
2023-03-21T15:10:08.419Z,10.02
2023-03-21T15:12:35.307Z,11.50
2023-03-21T15:15:02.601Z,10.40
2023-03-21T15:17:30.498Z,10.52
2023-03-21T15:19:57.159Z,11.00
2023-03-21T15:22:47.443Z,11.77
2023-03-21T15:25:20.545Z,8.38
2023-03-21T15:27:50.340Z,11.38
2023-03-21T15:30:21.699Z,10.38
2023-03-21T15:32:49.765Z,9.18
2023-03-21T15:35:21.007Z,9.80
2023-03-21T15:37:57.588Z,9.55
2023-03-21T15:40:27.181Z,11.20
2023-03-21T15:43:15.003Z,11.27
2023-03-21T15:45:54.364Z,9.48
2023-03-21T15:48:25.557Z,7.60
2023-03-21T15:51:03.545Z,11.93
2023-03-21T15:53:33.222Z,7.05
2023-03-21T15:56:05.277Z,10.77
2023-03-21T15:58:35.989Z,8.27
2023-03-21T16:01:06.517Z,7.43
2023-03-21T16:03:39.913Z,9.13
2023-03-21T16:06:20.202Z,7.50
2023-03-21T16:08:49.703Z,10.43
2023-03-21T16:11:27.592Z,9.23
2023-03-21T16:13:55.939Z,7.18
2023-03-21T16:16:28.349Z,7.72
2023-03-21T16:18:57.267Z,8.07
2023-03-21T16:21:30.025Z,7.85
2023-03-21T16:23:59.616Z,8.57
2023-03-21T16:26:31.503Z,8.27
2023-03-21T16:28:58.921Z,7.57
2023-03-21T16:31:28.618Z,6.43
2023-03-21T16:33:55.256Z,7.37
2023-03-21T16:36:28.887Z,11.23
2023-03-21T16:38:56.031Z,6.82
2023-03-21T16:41:24.173Z,6.85
2023-03-21T16:43:51.701Z,9.20
2023-03-21T16:46:27.268Z,8.40
2023-03-21T16:48:57.082Z,7.55
2023-03-21T16:51:29.923Z,8.20
2023-03-21T16:53:57.250Z,5.05
2023-03-21T16:56:27.423Z,5.28
2023-03-21T16:58:55.297Z,7.05
2023-03-21T17:01:27.742Z,6.22
2023-03-21T17:03:54.353Z,6.75
2023-03-21T17:06:24.126Z,8.77
2023-03-21T17:08:51.889Z,6.93
2023-03-21T17:11:21.507Z,8.70
2023-03-21T17:13:50.337Z,6.45
2023-03-21T17:16:20.331Z,8.25
2023-03-21T17:18:47.805Z,9.05
2023-03-21T17:21:17.443Z,8.45
2023-03-21T17:23:44.799Z,8.40
2023-03-21T17:26:13.974Z,8.52
2023-03-21T17:28:41.625Z,9.52
2023-03-21T17:31:13.902Z,9.63
2023-03-21T17:33:41.396Z,8.07
2023-03-21T17:36:15.172Z,9.13
2023-03-21T17:38:42.579Z,9.50
2023-03-21T17:41:12.166Z,9.05
2023-03-21T17:43:40.336Z,8.60
2023-03-21T17:46:12.421Z,6.53
2023-03-21T17:48:39.237Z,9.27
2023-03-21T17:51:06.382Z,8.15
2023-03-21T17:53:33.168Z,8.68
2023-03-21T17:56:00.201Z,13.20
2023-03-21T17:58:27.801Z,10.20
2023-03-21T18:00:54.342Z,7.20
2023-03-21T18:03:21.082Z,8.93
2023-03-21T18:05:47.714Z,7.55
2023-03-21T18:08:14.176Z,7.87
2023-03-21T18:10:41.950Z,5.35
2023-03-21T18:13:08.961Z,7.35
2023-03-21T18:15:38.068Z,7.85
2023-03-21T18:18:05.574Z,7.22
2023-03-21T18:23:20.201Z,6.93
2023-03-21T18:25:47.174Z,10.07
2023-03-21T18:28:14.170Z,7.53
2023-03-21T18:31:06.992Z,6.32
2023-03-21T18:33:27.761Z,8.48
2023-03-21T18:35:59.001Z,5.62
2023-03-21T18:38:27.384Z,5.55
2023-03-21T18:40:55.204Z,8.07
2023-03-21T18:46:08.894Z,8.10
2023-03-21T18:48:36.001Z,8.63
2023-03-21T18:51:04.125Z,8.88
2023-03-21T18:53:32.076Z,8.95
2023-03-21T18:55:58.623Z,12.95
2023-03-21T18:58:25.192Z,9.10
2023-03-21T19:00:53.092Z,8.65
2023-03-21T19:03:34.097Z,17.35
2023-03-21T19:06:05.520Z,13.57
2023-03-21T19:08:34.040Z,9.68
2023-03-21T19:11:04.377Z,10.20
2023-03-21T19:13:33.779Z,11.10
2023-03-21T19:16:02.500Z,10.85
2023-03-21T19:18:50.227Z,10.40
2023-03-21T19:21:18.370Z,16.02
2023-03-21T19:24:20.899Z,13.70
2023-03-21T19:26:32.351Z,10.73
2023-03-21T19:28:59.051Z,11.27
2023-03-21T19:31:26.101Z,9.95
2023-03-21T19:33:53.006Z,11.18
2023-03-21T19:36:22.770Z,13.05
2023-03-21T19:38:50.905Z,11.10
2023-03-21T19:41:20.211Z,9.88
2023-03-21T19:43:54.157Z,8.25
2023-03-21T19:46:24.326Z,10.68
2023-03-21T19:48:55.934Z,9.18
2023-03-21T19:51:28.749Z,7.65
2023-03-21T19:56:27.066Z,8.32
2023-03-21T19:58:55.004Z,8.85
2023-03-21T20:01:23.338Z,11.02
2023-03-21T20:03:51.674Z,8.30
2023-03-21T20:06:18.437Z,14.55
2023-03-21T20:11:32.604Z,19.90
2023-03-21T20:14:01.327Z,21.95
2023-03-21T20:16:34.276Z,17.12
2023-03-21T20:19:05.221Z,16.00
2023-03-21T20:21:41.095Z,10.82
2023-03-21T20:24:12.199Z,11.00
2023-03-21T20:26:38.906Z,12.13
2023-03-21T20:29:48.464Z,15.65
2023-03-21T20:31:52.588Z,9.93
2023-03-21T20:34:19.171Z,13.40
2023-03-21T20:36:46.264Z,11.15
2023-03-21T20:39:13.337Z,10.85
2023-03-21T20:41:40.308Z,8.10
2023-03-21T20:44:41.667Z,13.43
2023-03-21T20:46:54.372Z,13.00
2023-03-21T20:49:22.488Z,11.48
2023-03-21T20:54:36.695Z,12.75
2023-03-21T20:57:05.037Z,10.60
2023-03-21T20:59:31.913Z,15.07
2023-03-21T21:01:59.006Z,14.65
2023-03-21T21:07:16.781Z,14.77
2023-03-21T21:09:44.902Z,18.45
2023-03-21T21:12:13.055Z,15.13
2023-03-21T21:14:40.674Z,16.23
2023-03-21T21:17:24.582Z,15.43
2023-03-21T21:19:54.116Z,19.73
2023-03-21T21:22:20.784Z,17.42
2023-03-21T21:24:47.311Z,16.27
2023-03-21T21:27:14.183Z,17.48
2023-03-21T21:29:42.626Z,25.62
2023-03-21T21:32:09.263Z,20.98
2023-03-21T21:34:36.562Z,18.83
2023-03-21T21:37:03.334Z,21.75
2023-03-21T21:39:35.308Z,22.15
2023-03-21T21:42:02.148Z,21.35
2023-03-21T21:44:29.321Z,19.17
2023-03-21T21:46:56.760Z,21.20
2023-03-21T21:49:24.132Z,22.83
2023-03-21T21:51:50.590Z,18.02
2023-03-21T21:54:17.459Z,18.40
2023-03-21T21:56:47.632Z,19.30
2023-03-21T21:59:15.879Z,20.33
2023-03-21T22:01:42.468Z,20.37
2023-03-21T22:04:10.707Z,20.37
2023-03-21T22:06:37.320Z,21.05
2023-03-21T22:09:06.300Z,24.85
2023-03-21T22:11:34.199Z,32.35
2023-03-21T22:14:00.718Z,33.35
2023-03-21T22:16:27.529Z,32.13
2023-03-21T22:18:54.349Z,30.55
2023-03-21T22:21:20.841Z,18.90
2023-03-21T22:23:47.300Z,23.50
2023-03-21T22:26:14.586Z,24.10
2023-03-21T22:28:42.382Z,20.20
2023-03-21T22:31:15.023Z,19.15
2023-03-21T22:33:43.369Z,21.70
2023-03-21T22:36:10.516Z,20.85
2023-03-21T22:38:37.645Z,20.70
2023-03-21T22:41:05.843Z,22.73
2023-03-21T22:43:33.461Z,22.10
2023-03-21T22:46:02.237Z,20.90
2023-03-21T22:48:30.391Z,23.58
2023-03-21T22:50:58.079Z,18.73
2023-03-21T22:53:25.108Z,20.92
2023-03-21T22:55:51.853Z,19.48
2023-03-21T22:58:18.599Z,19.12
2023-03-21T23:00:45.314Z,17.83
2023-03-21T23:03:13.897Z,19.90
2023-03-21T23:05:41.085Z,16.37
2023-03-21T23:08:08.322Z,17.90
2023-03-21T23:10:38.757Z,19.90
2023-03-21T23:13:06.185Z,17.52
2023-03-21T23:15:32.737Z,16.90
2023-03-21T23:17:59.529Z,18.23
2023-03-21T23:20:26.003Z,19.70
2023-03-21T23:22:52.548Z,17.65
2023-03-21T23:25:19.819Z,21.15
2023-03-21T23:27:46.605Z,17.25
2023-03-21T23:30:13.549Z,16.23
2023-03-21T23:32:40.404Z,18.08
2023-03-21T23:35:07.692Z,17.12
2023-03-21T23:37:34.551Z,14.75
2023-03-21T23:40:01.572Z,18.40
2023-03-21T23:42:30.048Z,16.10
2023-03-21T23:44:56.578Z,12.93
2023-03-21T23:47:23.373Z,16.02
2023-03-21T23:49:52.065Z,17.50
2023-03-21T23:52:18.642Z,18.55
2023-03-21T23:54:45.556Z,19.77
2023-03-21T23:57:12.292Z,20.65
2023-03-21T23:59:38.840Z,16.23
